createdAt,value
2018-07-01T00:00:43.596Z,3.27
2018-07-01T00:03:14.201Z,4.50
2018-07-01T00:05:44.755Z,3.70
2018-07-01T00:08:15.416Z,3.37
2018-07-01T00:10:46.031Z,3.90
2018-07-01T00:13:16.585Z,3.77
2018-07-01T00:15:47.131Z,4.10
2018-07-01T00:18:17.725Z,3.73
2018-07-01T00:20:48.261Z,3.97
2018-07-01T00:23:18.890Z,4.40
2018-07-01T00:25:49.428Z,5.43
2018-07-01T00:28:20.029Z,4.90
2018-07-01T00:30:50.576Z,4.10
2018-07-01T00:33:21.205Z,4.07
2018-07-01T00:35:51.805Z,4.00
2018-07-01T00:38:22.473Z,4.07
2018-07-01T00:40:53.157Z,4.00
2018-07-01T00:43:23.769Z,4.30
2018-07-01T00:45:54.333Z,3.87
2018-07-01T00:48:24.901Z,4.13
2018-07-01T00:50:55.485Z,3.73
2018-07-01T00:53:26.074Z,4.60
2018-07-01T00:55:56.621Z,4.50
2018-07-01T00:58:27.545Z,3.90
2018-07-01T01:00:58.122Z,4.03
2018-07-01T01:03:28.754Z,4.80
2018-07-01T01:05:59.351Z,3.90
2018-07-01T01:08:29.992Z,4.43
2018-07-01T01:11:00.510Z,3.80
2018-07-01T01:13:31.130Z,4.13
2018-07-01T01:16:01.696Z,4.40
2018-07-01T01:18:32.235Z,4.30
2018-07-01T01:21:02.926Z,4.13
2018-07-01T01:23:33.520Z,4.20
2018-07-01T01:26:04.100Z,4.20
2018-07-01T01:28:34.989Z,4.07
2018-07-01T01:31:05.630Z,4.20
2018-07-01T01:33:36.262Z,3.77
2018-07-01T01:36:06.881Z,4.33
2018-07-01T01:38:39.342Z,4.20
2018-07-01T01:42:17.635Z,4.47
2018-07-01T01:44:52.901Z,4.10
2018-07-01T01:47:56.885Z,4.40
2018-07-01T01:50:34.793Z,4.23
2018-07-01T01:53:17.595Z,4.33
2018-07-01T01:55:54.595Z,4.93
2018-07-01T01:58:30.432Z,4.70
2018-07-01T02:01:06.641Z,4.50
2018-07-01T02:03:47.419Z,4.63
2018-07-01T02:06:22.195Z,4.40
2018-07-01T02:08:57.501Z,4.40
2018-07-01T02:11:29.408Z,4.40
2018-07-01T02:14:03.619Z,4.93
2018-07-01T02:16:37.363Z,5.00
2018-07-01T02:19:07.950Z,5.10
2018-07-01T02:21:38.572Z,3.93
2018-07-01T02:24:13.264Z,4.53
2018-07-01T02:26:43.880Z,4.90
2018-07-01T02:29:14.485Z,4.43
2018-07-01T02:31:45.038Z,5.37
2018-07-01T02:34:15.570Z,5.17
2018-07-01T02:36:46.137Z,4.50
2018-07-01T02:39:16.733Z,4.57
2018-07-01T02:41:47.366Z,4.40
2018-07-01T02:44:17.921Z,4.93
2018-07-01T02:46:48.523Z,4.53
2018-07-01T02:49:19.131Z,4.70
2018-07-01T02:51:49.722Z,4.37
2018-07-01T02:54:20.256Z,4.67
2018-07-01T02:56:50.878Z,4.30
2018-07-01T02:59:21.418Z,4.73
2018-07-01T03:01:52.345Z,4.67
2018-07-01T03:04:22.891Z,4.80
2018-07-01T03:06:53.468Z,4.93
2018-07-01T03:09:24.062Z,4.77
2018-07-01T03:11:54.606Z,4.03
2018-07-01T03:14:25.142Z,4.20
2018-07-01T03:16:55.833Z,4.67
2018-07-01T03:19:26.362Z,4.33
2018-07-01T03:21:56.929Z,4.30
2018-07-01T03:24:27.450Z,4.97
2018-07-01T03:26:58.037Z,4.67
2018-07-01T03:29:28.577Z,4.47
2018-07-01T03:31:59.281Z,4.47
2018-07-01T03:34:29.805Z,4.10
2018-07-01T03:37:00.413Z,4.50
2018-07-01T03:39:30.981Z,4.00
2018-07-01T03:42:01.551Z,4.93
2018-07-01T03:44:32.050Z,4.73
2018-07-01T03:47:02.641Z,3.90
2018-07-01T03:49:33.152Z,4.27
2018-07-01T03:52:03.716Z,4.53
2018-07-01T03:54:34.285Z,4.00
2018-07-01T03:57:04.845Z,4.23
2018-07-01T03:59:35.391Z,4.03
2018-07-01T04:02:06.442Z,4.10
2018-07-01T04:04:36.952Z,4.30
2018-07-01T04:07:07.492Z,4.30
2018-07-01T04:09:38.003Z,4.37
2018-07-01T04:12:08.554Z,4.17
2018-07-01T04:14:39.082Z,4.60
2018-07-01T04:17:09.793Z,5.00
2018-07-01T04:19:40.381Z,5.00
2018-07-01T04:22:11.265Z,4.17
2018-07-01T04:24:41.780Z,4.50
2018-07-01T04:27:12.339Z,4.53
2018-07-01T04:29:42.855Z,3.67
2018-07-01T04:32:13.487Z,4.60
2018-07-01T04:34:43.989Z,4.10
2018-07-01T04:37:14.553Z,4.20
2018-07-01T04:39:45.086Z,4.33
2018-07-01T04:42:15.638Z,3.97
2018-07-01T04:44:46.185Z,4.10
2018-07-01T04:47:16.810Z,4.50
2018-07-01T04:49:47.427Z,4.33
2018-07-01T04:52:18.218Z,7.90
2018-07-01T04:54:48.790Z,15.20
2018-07-01T04:57:19.390Z,14.73
2018-07-01T04:59:50.016Z,5.47
2018-07-01T05:02:21.177Z,4.10
2018-07-01T05:04:51.777Z,4.10
2018-07-01T05:07:22.506Z,4.37
2018-07-01T05:09:53.031Z,3.47
2018-07-01T05:12:23.605Z,3.50
2018-07-01T05:14:54.225Z,3.77
2018-07-01T05:17:24.901Z,3.10
2018-07-01T05:19:55.449Z,3.50
2018-07-01T05:22:26.029Z,3.60
2018-07-01T05:24:56.607Z,3.30
2018-07-01T05:27:27.265Z,3.50
2018-07-01T05:29:57.864Z,2.93
2018-07-01T05:32:28.657Z,3.40
2018-07-01T05:34:59.239Z,2.80
2018-07-01T05:37:29.865Z,3.20
2018-07-01T05:40:00.456Z,2.90
2018-07-01T05:42:31.065Z,2.27
2018-07-01T05:45:01.728Z,2.40
2018-07-01T05:47:32.474Z,1.90
2018-07-01T05:50:03.099Z,2.20
2018-07-01T05:52:33.702Z,2.23
2018-07-01T05:55:04.314Z,3.20
2018-07-01T05:57:34.909Z,2.37
2018-07-01T06:00:06.461Z,1.70
2018-07-01T06:02:37.704Z,1.87
2018-07-01T06:05:08.247Z,1.23
2018-07-01T06:07:38.795Z,1.57
2018-07-01T06:10:09.487Z,1.40
2018-07-01T06:12:40.053Z,1.90
2018-07-01T06:15:10.679Z,1.80
2018-07-01T06:17:41.285Z,1.40
2018-07-01T06:20:11.902Z,1.30
2018-07-01T06:22:42.480Z,1.67
2018-07-01T06:25:13.077Z,1.70
2018-07-01T06:27:43.714Z,1.60
2018-07-01T06:30:14.237Z,1.70
2018-07-01T06:32:44.913Z,1.77
2018-07-01T06:35:15.457Z,1.30
2018-07-01T06:37:46.097Z,1.57
2018-07-01T06:40:16.661Z,1.80
2018-07-01T06:42:47.267Z,1.90
2018-07-01T06:45:17.809Z,1.53
2018-07-01T06:47:48.500Z,2.00
2018-07-01T06:50:19.110Z,1.93
2018-07-01T06:52:49.813Z,1.83
2018-07-01T06:55:20.408Z,1.80
2018-07-01T06:57:51.014Z,1.80
2018-07-01T07:00:21.602Z,2.03
2018-07-01T07:02:52.340Z,1.77
2018-07-01T07:05:22.877Z,2.20
2018-07-01T07:07:53.501Z,2.17
2018-07-01T07:10:24.053Z,2.40
2018-07-01T07:12:54.658Z,1.87
2018-07-01T07:15:25.227Z,2.10
2018-07-01T07:17:55.808Z,2.10
2018-07-01T07:20:26.405Z,2.03
2018-07-01T07:22:57.006Z,2.20
2018-07-01T07:25:27.577Z,2.13
2018-07-01T07:27:58.166Z,2.20
2018-07-01T07:30:28.726Z,2.20
2018-07-01T07:32:59.345Z,2.13
2018-07-01T07:35:29.890Z,2.13
2018-07-01T07:38:00.464Z,2.27
2018-07-01T07:40:31.015Z,2.13
2018-07-01T07:43:01.620Z,2.43
2018-07-01T07:45:32.176Z,2.57
2018-07-01T07:48:02.757Z,2.67
2018-07-01T07:50:33.331Z,2.47
2018-07-01T07:53:03.903Z,2.00
2018-07-01T07:55:34.471Z,2.33
2018-07-01T07:58:05.045Z,2.60
2018-07-01T08:00:35.609Z,2.13
2018-07-01T08:03:06.643Z,2.40
2018-07-01T08:05:37.205Z,2.50
2018-07-01T08:08:08.077Z,2.10
2018-07-01T08:10:38.594Z,2.00
2018-07-01T08:13:09.202Z,2.57
2018-07-01T08:15:39.729Z,18.77
2018-07-01T08:18:10.441Z,5.40
2018-07-01T08:20:40.972Z,2.20
2018-07-01T08:23:11.576Z,2.10
2018-07-01T08:25:42.224Z,1.90
2018-07-01T08:28:12.852Z,2.10
2018-07-01T08:30:43.411Z,1.87
2018-07-01T08:33:14.014Z,2.00
2018-07-01T08:35:44.571Z,2.00
2018-07-01T08:38:15.234Z,1.90
2018-07-01T08:40:45.853Z,2.00
2018-07-01T08:43:16.486Z,2.07
2018-07-01T08:45:47.103Z,1.77
2018-07-01T08:48:17.714Z,2.07
2018-07-01T08:50:48.250Z,1.77
2018-07-01T08:53:18.862Z,1.97
2018-07-01T08:55:49.433Z,1.70
2018-07-01T08:58:20.042Z,1.50
2018-07-01T09:00:50.627Z,1.77
2018-07-01T09:03:21.576Z,1.63
2018-07-01T09:05:52.150Z,1.80
2018-07-01T09:08:22.763Z,1.70
2018-07-01T09:10:53.314Z,1.50
2018-07-01T09:13:23.897Z,1.70
2018-07-01T09:15:54.460Z,1.77
2018-07-01T09:18:25.095Z,1.80
2018-07-01T09:20:55.698Z,1.77
2018-07-01T09:23:26.244Z,1.80
2018-07-01T09:25:56.774Z,1.60
2018-07-01T09:28:27.522Z,1.70
2018-07-01T09:30:58.073Z,1.60
2018-07-01T09:33:28.638Z,1.97
2018-07-01T09:35:59.163Z,1.40
2018-07-01T09:38:29.800Z,1.73
2018-07-01T09:41:00.657Z,1.50
2018-07-01T09:43:31.403Z,1.40
2018-07-01T09:46:01.963Z,1.60
2018-07-01T09:48:32.557Z,1.67
2018-07-01T09:51:03.105Z,1.57
2018-07-01T09:53:33.703Z,1.47
2018-07-01T09:56:04.267Z,1.60
2018-07-01T09:58:34.955Z,1.33
2018-07-01T10:01:05.908Z,1.20
2018-07-01T10:03:36.726Z,1.53
2018-07-01T10:06:07.278Z,1.30
2018-07-01T10:08:37.892Z,1.50
2018-07-01T10:11:08.514Z,1.40
2018-07-01T10:13:39.241Z,1.40
2018-07-01T10:16:09.839Z,1.50
2018-07-01T10:18:40.061Z,1.60
2018-07-01T10:21:10.541Z,1.30
2018-07-01T10:23:41.453Z,1.43
2018-07-01T10:26:12.668Z,1.20
2018-07-01T10:29:00.161Z,1.23
2018-07-01T10:31:30.768Z,1.53
2018-07-01T10:34:01.349Z,1.40
2018-07-01T10:36:31.892Z,1.40
2018-07-01T10:39:02.604Z,1.50
2018-07-01T10:41:33.166Z,1.30
2018-07-01T10:44:03.709Z,1.50
2018-07-01T10:46:34.380Z,1.23
2018-07-01T10:49:05.082Z,1.07
2018-07-01T10:51:35.992Z,1.20
2018-07-01T10:54:06.766Z,1.30
2018-07-01T10:56:37.349Z,1.00
2018-07-01T10:59:07.990Z,0.80
2018-07-01T11:01:38.668Z,0.90
2018-07-01T11:04:09.663Z,1.27
2018-07-01T11:06:40.237Z,1.10
2018-07-01T11:09:12.705Z,1.10
2018-07-01T11:11:43.345Z,1.10
2018-07-01T11:14:13.933Z,1.20
2018-07-01T11:16:44.463Z,0.97
2018-07-01T11:19:15.079Z,1.33
2018-07-01T11:21:45.642Z,1.20
2018-07-01T11:24:16.261Z,1.23
2018-07-01T11:26:46.894Z,1.20
2018-07-01T11:29:17.366Z,1.40
2018-07-01T11:31:47.896Z,1.00
2018-07-01T11:34:18.527Z,1.00
2018-07-01T11:36:49.101Z,1.37
2018-07-01T11:39:19.698Z,1.50
2018-07-01T11:41:50.312Z,1.03
2018-07-01T11:44:20.891Z,1.40
2018-07-01T11:46:51.505Z,1.70
2018-07-01T11:49:22.182Z,1.00
2018-07-01T11:51:52.817Z,1.20
2018-07-01T11:54:23.489Z,1.23
2018-07-01T11:56:54.147Z,1.50
2018-07-01T11:59:24.772Z,2.00
2018-07-01T12:01:55.109Z,1.70
2018-07-01T12:04:26.550Z,1.27
2018-07-01T12:06:57.138Z,1.30
2018-07-01T12:09:27.741Z,1.40
2018-07-01T12:11:58.379Z,1.40
2018-07-01T12:14:28.985Z,1.40
2018-07-01T12:16:59.628Z,1.20
2018-07-01T12:19:30.287Z,1.53
2018-07-01T12:22:00.848Z,1.30
2018-07-01T12:24:31.501Z,1.43
2018-07-01T12:27:02.095Z,1.10
2018-07-01T12:29:32.822Z,1.30
2018-07-01T12:32:03.459Z,1.20
2018-07-01T12:34:34.073Z,1.17
2018-07-01T12:37:04.717Z,1.27
2018-07-01T12:39:35.369Z,1.30
2018-07-01T12:42:06.353Z,1.30
2018-07-01T12:44:37.044Z,1.37
2018-07-01T12:47:07.699Z,1.07
2018-07-01T12:49:38.350Z,1.27
2018-07-01T12:52:09.009Z,1.20
2018-07-01T12:54:39.647Z,1.03
2018-07-01T12:57:10.227Z,1.10
2018-07-01T12:59:40.849Z,1.00
2018-07-01T13:02:11.404Z,1.10
2018-07-01T13:04:42.121Z,1.27
2018-07-01T13:07:12.737Z,1.20
2018-07-01T13:09:43.391Z,1.20
2018-07-01T13:12:14.123Z,1.57
2018-07-01T13:14:44.860Z,1.30
2018-07-01T13:17:15.443Z,1.10
2018-07-01T13:19:46.137Z,1.30
2018-07-01T13:22:16.751Z,1.20
2018-07-01T13:24:47.438Z,1.37
2018-07-01T13:27:18.078Z,1.00
2018-07-01T13:29:48.699Z,1.47
2018-07-01T13:32:19.230Z,1.30
2018-07-01T13:34:49.869Z,1.43
2018-07-01T13:37:20.446Z,1.30
2018-07-01T13:39:51.149Z,1.27
2018-07-01T13:42:21.777Z,1.20
2018-07-01T13:44:52.061Z,1.30
2018-07-01T13:47:22.557Z,1.10
2018-07-01T13:49:53.230Z,1.10
2018-07-01T13:52:23.857Z,1.07
2018-07-01T13:54:54.482Z,1.17
2018-07-01T13:57:25.065Z,1.47
2018-07-01T13:59:55.667Z,1.60
2018-07-01T14:02:26.214Z,1.20
2018-07-01T14:04:57.387Z,2.50
2018-07-01T14:07:27.950Z,1.80
2018-07-01T14:09:58.561Z,1.40
2018-07-01T14:12:29.154Z,1.30
2018-07-01T14:14:59.804Z,1.50
2018-07-01T14:17:30.482Z,1.53
2018-07-01T14:20:01.136Z,1.20
2018-07-01T14:22:31.741Z,1.30
2018-07-01T14:25:02.474Z,1.33
2018-07-01T14:27:33.100Z,1.20
2018-07-01T14:30:03.748Z,1.17
2018-07-01T14:32:34.357Z,1.30
2018-07-01T14:35:05.336Z,1.17
2018-07-01T14:37:36.022Z,1.30
2018-07-01T14:40:06.720Z,1.37
2018-07-01T14:42:37.297Z,1.30
2018-07-01T14:45:07.923Z,1.50
2018-07-01T14:47:38.506Z,1.30
2018-07-01T14:50:08.809Z,1.50
2018-07-01T14:52:38.981Z,1.47
2018-07-01T14:55:09.589Z,1.30
2018-07-01T14:57:40.214Z,1.70
2018-07-01T15:00:10.825Z,1.60
2018-07-01T15:02:41.105Z,1.60
2018-07-01T15:05:11.852Z,1.20
2018-07-01T15:07:42.451Z,1.50
2018-07-01T15:10:13.014Z,1.63
2018-07-01T15:12:43.599Z,1.50
2018-07-01T15:15:14.184Z,1.77
2018-07-01T15:17:44.782Z,1.73
2018-07-01T15:20:15.427Z,1.47
2018-07-01T15:22:46.072Z,1.40
2018-07-01T15:25:16.729Z,1.60
2018-07-01T15:27:47.318Z,1.90
2018-07-01T15:30:17.983Z,1.80
2018-07-01T15:32:48.586Z,1.33
2018-07-01T15:35:19.282Z,1.90
2018-07-01T15:37:49.907Z,1.40
2018-07-01T15:40:20.538Z,1.50
2018-07-01T15:42:51.145Z,1.40
2018-07-01T15:45:21.423Z,1.43
2018-07-01T15:47:51.915Z,1.50
2018-07-01T15:50:22.597Z,1.70
2018-07-01T15:52:53.198Z,1.13
2018-07-01T15:55:23.754Z,1.63
2018-07-01T15:57:54.305Z,1.40
2018-07-01T16:00:24.974Z,1.13
2018-07-01T16:02:55.606Z,1.37
2018-07-01T16:05:27.227Z,1.40
2018-07-01T16:07:57.850Z,1.90
2018-07-01T16:10:28.463Z,1.37
2018-07-01T16:12:59.137Z,1.60
2018-07-01T16:15:29.733Z,1.17
2018-07-01T16:18:00.267Z,1.20
2018-07-01T16:20:30.942Z,1.20
2018-07-01T16:23:01.470Z,1.20
2018-07-01T16:25:38.737Z,1.20
2018-07-01T16:28:14.349Z,1.07
2018-07-01T16:30:44.933Z,1.40
2018-07-01T16:33:15.473Z,0.90
2018-07-01T16:35:46.138Z,1.30
2018-07-01T16:38:16.987Z,1.57
2018-07-01T16:40:47.656Z,1.37
2018-07-01T16:43:18.257Z,1.30
2018-07-01T16:45:48.914Z,1.10
2018-07-01T16:48:19.553Z,1.00
2018-07-01T16:50:50.265Z,1.27
2018-07-01T16:53:20.857Z,1.10
2018-07-01T16:55:51.494Z,5.90
2018-07-01T16:58:22.081Z,1.30
2018-07-01T17:00:52.676Z,1.17
2018-07-01T17:03:23.250Z,1.30
2018-07-01T17:05:54.133Z,1.37
2018-07-01T17:08:24.737Z,1.00
2018-07-01T17:10:55.408Z,1.10
2018-07-01T17:13:26.024Z,1.30
2018-07-01T17:15:56.616Z,1.30
2018-07-01T17:18:27.250Z,1.00
2018-07-01T17:20:58.827Z,1.10
2018-07-01T17:23:29.416Z,1.10
2018-07-01T17:26:00.029Z,1.40
2018-07-01T17:28:30.618Z,9.20
2018-07-01T17:31:07.077Z,4.00
2018-07-01T17:33:37.860Z,1.60
2018-07-01T17:36:08.573Z,1.20
2018-07-01T17:38:39.129Z,1.50
2018-07-01T17:41:09.746Z,1.30
2018-07-01T17:43:40.669Z,1.10
2018-07-01T17:46:11.578Z,3.13
2018-07-01T17:48:42.153Z,6.30
2018-07-01T17:51:12.873Z,2.90
2018-07-01T17:53:52.720Z,2.37
2018-07-01T17:56:23.809Z,1.60
2018-07-01T17:58:55.135Z,1.40
2018-07-01T18:01:25.782Z,1.90
2018-07-01T18:03:56.391Z,1.70
2018-07-01T18:06:27.507Z,2.10
2018-07-01T18:08:58.098Z,2.37
2018-07-01T18:11:28.758Z,1.97
2018-07-01T18:13:59.359Z,1.50
2018-07-01T18:16:30.028Z,1.50
2018-07-01T18:19:00.655Z,1.83
2018-07-01T18:21:31.533Z,1.80
2018-07-01T18:24:27.527Z,1.57
2018-07-01T18:26:32.451Z,1.20
2018-07-01T18:29:10.774Z,1.43
2018-07-01T18:31:33.702Z,1.23
2018-07-01T18:34:04.290Z,1.50
2018-07-01T18:36:35.258Z,4.63
2018-07-01T18:39:09.022Z,16.93
2018-07-01T18:41:39.590Z,2.13
2018-07-01T18:44:10.133Z,1.73
2018-07-01T18:46:40.755Z,1.40
2018-07-01T18:49:11.334Z,1.10
2018-07-01T18:51:41.940Z,1.87
2018-07-01T18:54:12.454Z,1.30
2018-07-01T18:56:43.771Z,1.20
2018-07-01T18:59:14.373Z,1.50
2018-07-01T19:01:44.971Z,1.20
2018-07-01T19:04:15.571Z,1.43
2018-07-01T19:06:46.418Z,1.43
2018-07-01T19:09:16.945Z,1.50
2018-07-01T19:11:47.530Z,1.20
2018-07-01T19:14:18.157Z,1.83
2018-07-01T19:16:48.729Z,1.40
2018-07-01T19:19:19.261Z,1.50
2018-07-01T19:21:49.804Z,1.50
2018-07-01T19:24:20.332Z,1.53
2018-07-01T19:26:50.932Z,1.50
2018-07-01T19:29:21.560Z,1.70
2018-07-01T19:31:52.276Z,1.80
2018-07-01T19:34:22.842Z,1.97
2018-07-01T19:36:53.477Z,1.80
2018-07-01T19:39:24.106Z,1.73
2018-07-01T19:41:54.738Z,1.70
2018-07-01T19:44:25.281Z,1.57
2018-07-01T19:46:56.182Z,1.70
2018-07-01T19:49:26.780Z,1.80
2018-07-01T19:51:57.323Z,2.10
2018-07-01T19:54:27.952Z,1.53
2018-07-01T19:56:58.535Z,1.97
2018-07-01T19:59:29.098Z,2.10
2018-07-01T20:01:59.827Z,2.00
2018-07-01T20:04:30.389Z,2.30
2018-07-01T20:07:01.367Z,1.60
2018-07-01T20:09:31.920Z,1.50
2018-07-01T20:12:02.620Z,1.87
2018-07-01T20:14:33.158Z,2.03
2018-07-01T20:17:03.982Z,2.20
2018-07-01T20:19:34.657Z,1.73
2018-07-01T20:22:05.370Z,1.87
2018-07-01T20:24:35.918Z,2.07
2018-07-01T20:27:06.605Z,2.30
2018-07-01T20:29:37.173Z,2.13
2018-07-01T20:32:07.829Z,7.57
2018-07-01T20:34:38.436Z,6.93
2018-07-01T20:37:09.042Z,2.83
2018-07-01T20:39:39.548Z,2.00
2018-07-01T20:42:10.166Z,2.47
2018-07-01T20:44:40.720Z,2.67
2018-07-01T20:47:11.361Z,2.53
2018-07-01T20:49:41.898Z,2.50
2018-07-01T20:52:12.461Z,2.70
2018-07-01T20:54:43.121Z,2.30
2018-07-01T20:57:13.368Z,1.93
2018-07-01T20:59:43.831Z,2.13
2018-07-01T21:02:14.537Z,2.23
2018-07-01T21:04:45.145Z,2.40
2018-07-01T21:07:15.989Z,2.60
2018-07-01T21:09:46.582Z,2.63
2018-07-01T21:12:17.199Z,2.10
2018-07-01T21:14:47.767Z,2.27
2018-07-01T21:17:18.376Z,2.07
2018-07-01T21:19:48.953Z,2.30
2018-07-01T21:22:19.569Z,3.27
2018-07-01T21:24:50.114Z,4.67
2018-07-01T21:27:20.754Z,4.10
2018-07-01T21:29:51.291Z,3.20
2018-07-01T21:32:21.915Z,3.53
2018-07-01T21:34:52.606Z,3.30
2018-07-01T21:37:23.203Z,2.90
2018-07-01T21:39:53.762Z,2.50
2018-07-01T21:42:24.369Z,3.23
2018-07-01T21:44:55.001Z,2.50
2018-07-01T21:47:25.802Z,2.40
2018-07-01T21:49:56.350Z,2.50
2018-07-01T21:52:26.921Z,2.43
2018-07-01T21:54:57.484Z,2.30
2018-07-01T21:57:28.084Z,2.50
2018-07-01T21:59:58.645Z,2.43
2018-07-01T22:02:29.381Z,2.60
2018-07-01T22:04:59.941Z,2.40
2018-07-01T22:07:30.709Z,2.53
2018-07-01T22:10:01.238Z,2.40
2018-07-01T22:12:51.508Z,2.40
2018-07-01T22:15:38.766Z,2.77
2018-07-01T22:18:09.459Z,2.20
2018-07-01T22:20:40.010Z,2.40
2018-07-01T22:23:10.601Z,2.97
2018-07-01T22:25:41.145Z,2.63
2018-07-01T22:28:11.754Z,2.60
2018-07-01T22:30:42.285Z,3.10
2018-07-01T22:33:12.913Z,2.57
2018-07-01T22:35:43.485Z,2.57
2018-07-01T22:38:14.124Z,2.20
2018-07-01T22:40:44.651Z,2.47
2018-07-01T22:43:15.221Z,2.20
2018-07-01T22:45:45.825Z,2.80
2018-07-01T22:48:16.416Z,2.30
2018-07-01T22:50:46.965Z,2.23
2018-07-01T22:53:17.704Z,2.30
2018-07-01T22:55:48.188Z,2.50
2018-07-01T22:58:18.840Z,2.50
2018-07-01T23:00:49.392Z,2.90
2018-07-01T23:03:20.850Z,2.57
2018-07-01T23:05:51.387Z,2.40
2018-07-01T23:08:22.201Z,2.53
2018-07-01T23:10:52.822Z,2.80
2018-07-01T23:13:23.438Z,2.90
2018-07-01T23:15:54.067Z,2.40
2018-07-01T23:18:24.769Z,2.57
2018-07-01T23:20:55.341Z,2.93
2018-07-01T23:23:25.620Z,2.50
2018-07-01T23:25:56.111Z,2.70
2018-07-01T23:28:26.685Z,2.10
2018-07-01T23:30:57.242Z,2.20
2018-07-01T23:33:27.862Z,2.43
2018-07-01T23:35:58.478Z,2.47
2018-07-01T23:38:29.090Z,2.60
2018-07-01T23:40:59.675Z,2.40
2018-07-01T23:43:30.252Z,2.60
2018-07-01T23:46:00.857Z,2.80
2018-07-01T23:48:31.482Z,2.33
2018-07-01T23:51:02.129Z,2.70
2018-07-01T23:53:32.732Z,2.80
2018-07-01T23:56:03.349Z,2.77
2018-07-01T23:58:33.974Z,2.80
